Flight Information

DEPARTURE
LONG BEACH, CA
Elevation:
60
Runways:
8L/26R - 6192x150 - ASPH-E
8R/26L - 3918x100 - ASPH-G
H5 - 20x20 - ASPH-G
12/30 - 10000x200 - ASPH-G
H1 - 20x20 - ASPH-G
H2 - 20x20 - ASPH-G
H4 - 20x20 - ASPH-G
H3 - 300x35 - ASPH-G
ATIS:
127.75 562-595-8564
Clearance Delivery:
118.15
Ground:
133
Tower:
LONG BEACH TOWER 119.4
DESTINATION
,
Elevation:
TPA:
1000 (est.)


6784.4 NM73° True-14° Var59° HDG

Flight Plan:
(click to file on line)

1. Type
2. Aircraft Identification
3. Aircraft Type / Special Equipment
4. True Airspeed
kts
5. Departure Airport
(ICAO code)
6. Arriving Airport
(ICAO code)
7. Cruising Altitude
ft
8. Alternate Airport
(ICAO code)
9. Route of Flight
10. Remarks


00:00:00 Departure ATIS: Destination ATIS:

Clearance Limit:
Route:
Altitude: Expect in minutes
Frequency:
Transponder: (7500 Hijack / 7600 Lost Comms / 7700 Emergency)


KLGB 221553Z 10003KT 10SM SCT015 BKN022 OVC028 13/09 A3002 RMK AO2 SLP165 T01330094
Time: 2021-01-22T15:53:00Z
1611331122
Winds: 100 @ 3 kts
Visibility: 10.0 sm
Clouds (AGL): SCT 1500
BKN 2200
OVC 2800
Temperature: 13.3 C
Dew Point: 9.4 C
Pressure: 30.02067 in Hgbr


Notes:

Data extracted from FAA Digital Chart Supplement. Effective: 0901Z Thursday, Dec 31, 2020 to 0901Z Thursday, Jan 28, 2021
Current ATIS data is provided courtisy of PilotEdge.